createdAt,value
2019-01-21T00:00:13.878Z,101364.23
2019-01-21T00:02:42.255Z,101363.09
2019-01-21T00:05:10.807Z,101367.48
2019-01-21T00:07:39.334Z,101361.98
2019-01-21T00:10:08.674Z,101359.90
2019-01-21T00:12:37.070Z,101368.55
2019-01-21T00:15:08.150Z,101361.65
2019-01-21T00:17:36.526Z,101357.89
2019-01-21T00:20:06.771Z,101360.27
2019-01-21T00:22:35.233Z,101359.73
2019-01-21T00:25:04.194Z,101368.22
2019-01-21T00:27:32.717Z,101364.19
2019-01-21T00:30:01.122Z,101365.55
2019-01-21T00:32:29.496Z,101369.91
2019-01-21T00:34:57.892Z,101368.70
2019-01-21T00:37:26.344Z,101365.23
2019-01-21T00:39:54.736Z,101365.87
2019-01-21T00:42:23.255Z,101359.10
2019-01-21T00:44:51.766Z,101362.13
2019-01-21T00:47:20.153Z,101352.03
2019-01-21T00:49:48.554Z,101355.33
2019-01-21T00:52:16.932Z,101352.80
2019-01-21T00:54:45.387Z,101349.62
2019-01-21T00:57:13.770Z,101348.82
2019-01-21T00:59:42.247Z,101352.89
2019-01-21T01:02:10.631Z,101359.17
2019-01-21T01:04:39.034Z,101364.62
2019-01-21T01:07:07.422Z,101358.59
2019-01-21T01:09:35.819Z,101360.20
2019-01-21T01:12:04.275Z,101360.17
2019-01-21T01:14:32.666Z,101351.04
2019-01-21T01:17:01.045Z,101357.35
2019-01-21T01:19:29.468Z,101350.53
2019-01-21T01:21:57.849Z,101353.44
2019-01-21T01:24:26.234Z,101359.48
2019-01-21T01:26:54.623Z,101349.54
2019-01-21T01:29:23.001Z,101353.81
2019-01-21T01:31:51.467Z,101352.06
2019-01-21T01:34:19.850Z,101355.26
2019-01-21T01:36:48.240Z,101359.85
2019-01-21T01:39:16.626Z,101359.34
2019-01-21T01:41:45.017Z,101363.58
2019-01-21T01:44:13.443Z,101364.17
2019-01-21T01:46:42.114Z,101358.79
2019-01-21T01:49:10.863Z,101355.07
2019-01-21T01:51:39.257Z,101364.64
2019-01-21T01:54:07.644Z,101360.55
2019-01-21T01:56:36.036Z,101357.13
2019-01-21T01:59:04.483Z,101351.95
2019-01-21T02:01:32.882Z,101356.28
2019-01-21T02:04:01.276Z,101361.36
2019-01-21T02:06:29.675Z,101359.10
2019-01-21T02:08:58.065Z,101357.64
2019-01-21T02:11:26.477Z,101365.58
2019-01-21T02:13:55.144Z,101363.61
2019-01-21T02:16:23.542Z,101362.08
2019-01-21T02:18:51.953Z,101362.70
2019-01-21T02:21:23.132Z,101354.49
2019-01-21T02:23:54.295Z,101356.64
2019-01-21T02:26:25.043Z,101364.10
2019-01-21T02:29:07.977Z,101353.98
2019-01-21T02:31:51.301Z,101352.78
2019-01-21T02:34:28.700Z,101354.91
2019-01-21T02:37:00.141Z,101353.98
2019-01-21T02:39:37.552Z,101355.37
2019-01-21T02:42:17.539Z,101351.98
2019-01-21T02:45:06.900Z,101356.88
2019-01-21T02:47:47.463Z,101358.13
2019-01-21T02:50:33.821Z,101356.00
2019-01-21T02:53:14.277Z,101345.95
2019-01-21T02:55:51.406Z,101347.05
2019-01-21T02:58:39.526Z,101344.95
2019-01-21T03:01:44.424Z,101349.80
2019-01-21T03:04:40.292Z,101339.80
2019-01-21T03:07:26.959Z,101336.27
2019-01-21T03:10:16.561Z,101327.20
2019-01-21T03:13:00.229Z,101332.14
2019-01-21T03:15:37.789Z,101327.04
2019-01-21T03:18:20.989Z,101327.30
2019-01-21T03:21:04.280Z,101313.06
2019-01-21T03:23:50.782Z,101314.91
2019-01-21T03:26:24.741Z,101314.73
2019-01-21T03:29:05.400Z,101320.80
2019-01-21T03:32:06.959Z,101321.13
2019-01-21T03:34:50.237Z,101318.02
2019-01-21T03:37:27.166Z,101314.23
2019-01-21T03:40:30.695Z,101310.30
2019-01-21T03:43:04.776Z,101314.03
2019-01-21T03:45:50.568Z,101316.77
2019-01-21T03:48:24.844Z,101321.66
2019-01-21T03:51:02.187Z,101325.53
2019-01-21T03:53:36.438Z,101314.89
2019-01-21T03:56:07.161Z,101318.25
2019-01-21T03:58:59.416Z,101317.02
2019-01-21T04:01:30.857Z,101316.98
2019-01-21T04:04:04.947Z,101317.05
2019-01-21T04:06:45.607Z,101310.12
2019-01-21T04:09:44.438Z,101310.91
2019-01-21T04:12:18.735Z,101316.92
2019-01-21T04:15:07.434Z,101312.09
2019-01-21T04:18:01.803Z,101314.95
2019-01-21T04:20:38.541Z,101313.66
2019-01-21T04:23:38.888Z,101316.86
2019-01-21T04:26:26.772Z,101309.73
2019-01-21T04:28:58.222Z,101302.96
2019-01-21T04:31:32.582Z,101302.59
2019-01-21T04:34:27.926Z,101306.95
2019-01-21T04:37:18.489Z,101303.07
2019-01-21T04:39:58.903Z,101303.45
2019-01-21T04:42:42.023Z,101308.09
2019-01-21T04:45:25.416Z,101309.85
2019-01-21T04:48:13.612Z,101302.14
2019-01-21T04:50:50.764Z,101299.14
2019-01-21T04:53:37.322Z,101291.79
2019-01-21T04:56:14.413Z,101297.56
2019-01-21T04:58:48.741Z,101292.73
2019-01-21T05:01:20.195Z,101294.86
2019-01-21T05:04:08.118Z,101294.95
2019-01-21T05:06:56.465Z,101285.08
2019-01-21T05:09:33.574Z,101284.37
2019-01-21T05:12:17.075Z,101288.10
2019-01-21T05:14:54.408Z,101285.60
2019-01-21T05:17:25.835Z,101275.34
2019-01-21T05:20:12.632Z,101284.30
2019-01-21T05:23:02.253Z,101274.84
2019-01-21T05:25:42.670Z,101274.48
2019-01-21T05:28:35.441Z,101277.53
2019-01-21T05:31:15.725Z,101277.84
2019-01-21T05:33:50.077Z,101277.02
2019-01-21T05:36:39.021Z,101273.66
2019-01-21T05:39:10.740Z,101283.05
2019-01-21T05:41:54.309Z,101274.45
2019-01-21T05:44:34.570Z,101277.13
2019-01-21T05:47:11.663Z,101285.31
2019-01-21T05:50:03.962Z,101286.60
2019-01-21T05:52:41.183Z,101285.27
2019-01-21T05:55:15.325Z,101283.21
2019-01-21T05:57:58.734Z,101287.06
2019-01-21T06:00:49.686Z,101288.39
2019-01-21T06:03:29.906Z,101286.62
2019-01-21T06:06:01.351Z,101284.81
2019-01-21T06:09:01.523Z,101270.12
2019-01-21T06:11:38.265Z,101280.41
2019-01-21T06:14:12.258Z,101282.82
2019-01-21T06:16:51.976Z,101283.27
2019-01-21T06:19:41.609Z,101284.18
2019-01-21T06:22:18.918Z,101289.83
2019-01-21T06:24:53.263Z,101284.23
2019-01-21T06:27:30.339Z,101282.03
2019-01-21T06:30:04.924Z,101286.76
2019-01-21T06:33:06.732Z,101290.67
2019-01-21T06:36:04.045Z,101291.53
2019-01-21T06:38:50.592Z,101288.09
2019-01-21T06:41:40.075Z,101288.44
2019-01-21T06:44:22.858Z,101283.61
2019-01-21T06:46:54.308Z,101291.34
2019-01-21T06:49:42.570Z,101289.09
2019-01-21T06:52:37.939Z,101288.71
2019-01-21T06:55:14.939Z,101289.48
2019-01-21T06:58:02.857Z,101285.66
2019-01-21T07:00:56.890Z,101281.37
2019-01-21T07:03:33.886Z,101290.31
2019-01-21T07:06:37.049Z,101291.19
2019-01-21T07:09:11.500Z,101287.41
2019-01-21T07:11:57.954Z,101295.66
2019-01-21T07:14:49.241Z,101299.92
2019-01-21T07:17:29.756Z,101295.61
2019-01-21T07:20:24.167Z,101305.92
2019-01-21T07:23:01.244Z,101307.50
2019-01-21T07:26:07.427Z,101306.59
2019-01-21T07:28:56.891Z,101301.76
2019-01-21T07:31:40.328Z,101309.47
2019-01-21T07:34:28.253Z,101311.13
2019-01-21T07:37:16.457Z,101313.44
2019-01-21T07:40:00.234Z,101312.58
2019-01-21T07:42:55.632Z,101322.11
2019-01-21T07:45:42.098Z,101321.31
2019-01-21T07:48:25.700Z,101319.20
2019-01-21T07:51:00.040Z,101330.81
2019-01-21T07:53:34.265Z,101329.67
2019-01-21T07:56:14.498Z,101332.75
2019-01-21T07:58:48.656Z,101328.94
2019-01-21T08:01:28.492Z,101325.58
2019-01-21T08:04:27.215Z,101319.22
2019-01-21T08:07:07.432Z,101314.47
2019-01-21T08:09:58.309Z,101327.04
2019-01-21T08:12:46.212Z,101333.94
2019-01-21T08:15:29.658Z,101324.84
2019-01-21T08:18:16.197Z,101331.14
2019-01-21T08:20:50.185Z,101327.66
2019-01-21T08:23:21.630Z,101346.67
2019-01-21T08:25:53.059Z,101335.28
2019-01-21T08:28:42.454Z,101337.66
2019-01-21T08:31:26.202Z,101333.66
2019-01-21T08:34:09.687Z,101336.55
2019-01-21T08:36:46.725Z,101341.09
2019-01-21T08:39:26.844Z,101330.42
2019-01-21T08:42:13.590Z,101324.02
2019-01-21T08:44:53.764Z,101325.93
2019-01-21T08:47:30.915Z,101332.69
2019-01-21T08:50:08.030Z,101319.23
2019-01-21T08:52:45.306Z,101307.44
2019-01-21T08:55:45.637Z,101312.20
2019-01-21T08:58:32.113Z,101298.56
2019-01-21T09:01:26.220Z,101302.09
2019-01-21T09:04:06.171Z,101305.32
2019-01-21T09:06:40.122Z,101304.30
2019-01-21T09:09:23.353Z,101300.24
2019-01-21T09:12:14.219Z,101304.78
2019-01-21T09:14:53.889Z,101312.00
2019-01-21T09:17:40.369Z,101315.09
2019-01-21T09:20:17.617Z,101313.03
2019-01-21T09:22:52.015Z,101310.81
2019-01-21T09:25:32.341Z,101316.78
2019-01-21T09:28:35.726Z,101318.86
2019-01-21T09:31:23.461Z,101319.23
2019-01-21T09:34:09.862Z,101324.91
2019-01-21T09:36:49.614Z,101329.73
2019-01-21T09:39:21.105Z,101325.00
2019-01-21T09:42:14.496Z,101322.42
2019-01-21T09:44:45.941Z,101321.81
2019-01-21T09:47:13.184Z,101328.17
2019-01-21T09:49:43.820Z,101327.91
2019-01-21T09:52:13.687Z,101328.28
2019-01-21T09:54:42.307Z,101326.45
2019-01-21T09:57:10.754Z,101322.77
2019-01-21T09:59:39.142Z,101321.31
2019-01-21T10:02:07.528Z,101327.27
2019-01-21T10:04:38.969Z,101318.18
2019-01-21T10:07:30.957Z,101320.16
2019-01-21T10:10:05.600Z,101314.70
2019-01-21T10:12:46.200Z,101306.45
2019-01-21T10:15:30.110Z,101311.44
2019-01-21T10:18:07.588Z,101312.39
2019-01-21T10:20:44.717Z,101312.31
2019-01-21T10:23:32.701Z,101308.80
2019-01-21T10:26:12.947Z,101299.84
2019-01-21T10:28:47.021Z,101297.13
2019-01-21T10:31:27.286Z,101295.64
2019-01-21T10:34:07.336Z,101290.14
2019-01-21T10:36:38.785Z,101285.61
2019-01-21T10:39:34.053Z,101284.98
2019-01-21T10:42:14.430Z,101275.25
2019-01-21T10:45:00.666Z,101278.68
2019-01-21T10:47:37.424Z,101274.84
2019-01-21T10:50:23.226Z,101274.89
2019-01-21T10:53:02.907Z,101268.39
2019-01-21T10:55:56.117Z,101262.27
2019-01-21T10:58:30.378Z,101262.80
2019-01-21T11:01:35.366Z,101255.27
2019-01-21T11:04:21.903Z,101260.14
2019-01-21T11:07:21.324Z,101250.44
2019-01-21T11:10:04.530Z,101250.40
2019-01-21T11:12:45.179Z,101241.15
2019-01-21T11:15:19.491Z,101233.68
2019-01-21T11:17:53.444Z,101232.97
2019-01-21T11:20:41.704Z,101232.34
2019-01-21T11:23:29.707Z,101232.14
2019-01-21T11:26:25.140Z,101237.30
2019-01-21T11:28:59.611Z,101238.40
2019-01-21T11:31:37.121Z,101224.27
2019-01-21T11:34:44.089Z,101234.04
2019-01-21T11:37:52.439Z,101230.52
2019-01-21T11:41:00.730Z,101224.38
2019-01-21T11:44:09.030Z,101222.27
2019-01-21T11:47:17.379Z,101211.09
2019-01-21T11:50:24.345Z,101205.69
2019-01-21T11:53:32.711Z,101196.40
2019-01-21T11:56:39.718Z,101189.94
2019-01-21T11:59:46.694Z,101175.72
2019-01-21T12:02:53.732Z,101174.61
2019-01-21T12:06:02.030Z,101157.05
2019-01-21T12:15:10.306Z,101142.98
2019-01-21T12:18:17.300Z,101151.45
2019-01-21T12:21:24.284Z,101149.80
2019-01-21T12:24:32.660Z,101144.44
2019-01-21T12:27:39.679Z,101141.20
2019-01-21T12:30:48.048Z,101143.64
2019-01-21T12:33:56.409Z,101145.60
2019-01-21T12:37:04.797Z,101145.87
2019-01-21T12:40:13.121Z,101138.73
2019-01-21T12:43:21.451Z,101137.31
2019-01-21T12:46:28.454Z,101127.76
2019-01-21T12:49:35.441Z,101130.80
2019-01-21T12:52:43.939Z,101133.16
2019-01-21T12:55:50.932Z,101135.00
2019-01-21T12:58:57.941Z,101124.72
2019-01-21T13:02:06.310Z,101118.91
2019-01-21T13:05:13.468Z,101115.51
2019-01-21T13:08:21.857Z,101116.12
2019-01-21T13:11:28.836Z,101122.86
2019-01-21T13:14:37.226Z,101123.41
2019-01-21T13:17:45.532Z,101120.08
2019-01-21T13:20:53.984Z,101119.04
2019-01-21T13:24:02.343Z,101112.33
2019-01-21T13:27:10.633Z,101111.29
2019-01-21T13:30:18.928Z,101103.66
2019-01-21T13:33:25.905Z,101096.11
2019-01-21T13:36:32.887Z,101093.28
2019-01-21T13:39:41.199Z,101093.41
2019-01-21T13:42:49.722Z,101086.02
2019-01-21T13:45:56.725Z,101075.11
2019-01-21T13:49:03.700Z,101076.80
2019-01-21T13:52:10.675Z,101072.83
2019-01-21T13:55:17.656Z,101063.26
2019-01-21T13:58:26.009Z,101061.03
2019-01-21T14:01:32.986Z,101059.97
2019-01-21T14:04:39.971Z,101058.07
2019-01-21T14:07:46.960Z,101061.48
2019-01-21T14:10:55.269Z,101056.33
2019-01-21T14:14:03.611Z,101042.65
2019-01-21T14:17:11.921Z,101031.73
2019-01-21T14:20:20.355Z,101037.60
2019-01-21T14:23:28.720Z,101027.74
2019-01-21T14:26:35.699Z,101015.82
2019-01-21T14:29:42.670Z,101017.05
2019-01-21T14:32:51.094Z,101018.50
2019-01-21T14:36:00.478Z,101014.38
2019-01-21T14:39:09.648Z,101004.22
2019-01-21T14:42:17.981Z,101002.25
2019-01-21T14:45:24.968Z,100998.45
2019-01-21T14:48:33.256Z,100995.63
2019-01-21T14:51:40.248Z,101001.13
2019-01-21T14:54:48.520Z,101006.14
2019-01-21T14:57:55.512Z,101006.27
2019-01-21T15:01:02.542Z,100998.14
2019-01-21T15:04:09.457Z,100994.03
2019-01-21T15:07:17.764Z,100999.01
2019-01-21T15:10:26.091Z,100988.55
2019-01-21T15:13:33.017Z,100990.70
2019-01-21T15:16:41.379Z,100984.75
2019-01-21T15:19:49.758Z,100976.20
2019-01-21T15:22:58.284Z,100977.20
2019-01-21T15:26:06.737Z,100983.89
2019-01-21T15:29:15.069Z,100986.77
2019-01-21T15:32:23.533Z,100984.56
2019-01-21T15:35:30.592Z,100986.15
2019-01-21T15:38:38.911Z,100977.47
2019-01-21T15:41:45.889Z,100971.66
2019-01-21T15:44:54.176Z,100968.64
2019-01-21T15:48:02.485Z,100972.47
2019-01-21T15:51:09.458Z,100975.22
2019-01-21T15:54:17.753Z,100969.80
2019-01-21T15:57:24.732Z,100974.77
2019-01-21T16:00:33.075Z,100979.65
2019-01-21T16:03:41.381Z,100978.67
2019-01-21T16:06:49.656Z,100975.14
2019-01-21T16:09:56.640Z,100975.42
2019-01-21T16:13:03.623Z,100985.38
2019-01-21T16:16:10.598Z,100980.63
2019-01-21T16:19:17.588Z,100975.97
2019-01-21T16:22:24.621Z,100974.39
2019-01-21T16:25:32.903Z,100971.29
2019-01-21T16:28:39.892Z,100969.05
2019-01-21T16:31:48.179Z,100966.56
2019-01-21T16:34:55.163Z,100959.56
2019-01-21T16:38:03.521Z,100962.11
2019-01-21T16:41:11.809Z,100961.71
2019-01-21T16:43:40.199Z,100952.63
2019-01-21T16:46:08.595Z,100959.37
2019-01-21T16:48:36.997Z,100948.80
2019-01-21T16:51:05.529Z,100949.05
2019-01-21T16:53:33.915Z,100944.87
2019-01-21T16:56:02.305Z,100945.97
2019-01-21T16:58:30.688Z,100946.27
2019-01-21T17:00:59.075Z,100943.02
2019-01-21T17:03:27.536Z,100943.31
2019-01-21T17:05:55.926Z,100944.56
2019-01-21T17:08:24.303Z,100939.20
2019-01-21T17:10:52.694Z,100950.73
2019-01-21T17:13:21.088Z,100950.96
2019-01-21T17:15:49.467Z,100940.50
2019-01-21T17:18:17.866Z,100949.78
2019-01-21T17:20:46.242Z,100946.06
2019-01-21T17:23:14.667Z,100937.77
2019-01-21T17:25:43.049Z,100935.95
2019-01-21T17:28:11.430Z,100933.03
2019-01-21T17:30:39.824Z,100925.34
2019-01-21T17:33:08.201Z,100927.92
2019-01-21T17:35:36.587Z,100923.64
2019-01-21T17:38:05.138Z,100922.92
2019-01-21T17:40:33.524Z,100921.03
2019-01-21T17:43:01.905Z,100924.47
2019-01-21T17:45:30.296Z,100928.22
2019-01-21T17:47:58.670Z,100925.61
2019-01-21T17:50:27.059Z,100921.96
2019-01-21T17:52:55.445Z,100924.14
2019-01-21T17:55:23.840Z,100920.20
2019-01-21T17:57:52.219Z,100919.34
2019-01-21T18:00:22.461Z,100913.20
2019-01-21T18:02:50.844Z,100910.23
2019-01-21T18:05:19.236Z,100910.18
2019-01-21T18:07:47.612Z,100907.88
2019-01-21T18:10:18.137Z,100909.20
2019-01-21T18:12:46.518Z,100899.01
2019-01-21T18:15:15.349Z,100907.56
2019-01-21T18:17:43.737Z,100909.67
2019-01-21T18:20:15.469Z,100910.66
2019-01-21T18:22:43.851Z,100907.95
2019-01-21T18:25:12.881Z,100902.20
2019-01-21T18:27:41.329Z,100899.94
2019-01-21T18:30:15.532Z,100897.70
2019-01-21T18:32:43.905Z,100886.27
2019-01-21T18:35:13.436Z,100894.20
2019-01-21T18:37:41.979Z,100889.41
2019-01-21T18:40:13.609Z,100889.41
2019-01-21T18:42:42.052Z,100888.75
2019-01-21T18:45:13.414Z,100884.20
2019-01-21T18:47:41.793Z,100883.17
2019-01-21T18:50:11.519Z,100879.19
2019-01-21T18:52:39.895Z,100878.29
2019-01-21T18:55:09.629Z,100872.70
2019-01-21T18:57:38.168Z,100872.75
2019-01-21T19:00:15.472Z,100879.35
2019-01-21T19:02:43.855Z,100879.28
2019-01-21T19:05:12.380Z,100876.66
2019-01-21T19:07:40.755Z,100882.48
2019-01-21T19:10:11.922Z,100876.92
2019-01-21T19:12:40.307Z,100874.70
2019-01-21T19:15:17.917Z,100883.02
2019-01-21T19:17:46.364Z,100880.13
2019-01-21T19:20:15.997Z,100881.56
2019-01-21T19:22:44.379Z,100880.28
2019-01-21T19:25:13.045Z,100880.73
2019-01-21T19:27:41.423Z,100876.52
2019-01-21T19:30:15.429Z,100879.52
2019-01-21T19:32:43.792Z,100888.16
2019-01-21T19:35:21.242Z,100882.52
2019-01-21T19:37:49.630Z,100876.30
2019-01-21T19:40:20.159Z,100881.03
2019-01-21T19:42:48.971Z,100883.50
2019-01-21T19:45:17.803Z,100880.18
2019-01-21T19:47:46.194Z,100878.97
2019-01-21T19:50:17.631Z,100880.22
2019-01-21T19:52:46.023Z,100872.16
2019-01-21T19:55:17.788Z,100873.16
2019-01-21T19:57:46.170Z,100873.92
2019-01-21T20:00:20.249Z,100866.94
2019-01-21T20:02:48.707Z,100868.33
2019-01-21T20:05:17.281Z,100866.78
2019-01-21T20:07:46.019Z,100858.27
2019-01-21T20:10:22.702Z,100865.20
2019-01-21T20:12:51.159Z,100861.31
2019-01-21T20:15:19.602Z,100854.80
2019-01-21T20:17:48.136Z,100850.00
2019-01-21T20:20:19.592Z,100846.16
2019-01-21T20:22:47.985Z,100847.53
2019-01-21T20:25:16.538Z,100840.14
2019-01-21T20:27:44.920Z,100843.31
2019-01-21T20:30:18.854Z,100843.64
2019-01-21T20:32:47.253Z,100847.67
2019-01-21T20:35:15.798Z,100847.20
2019-01-21T20:37:44.239Z,100846.83
2019-01-21T20:40:15.871Z,100842.21
2019-01-21T20:42:44.263Z,100844.73
2019-01-21T20:45:14.593Z,100843.31
2019-01-21T20:47:43.063Z,100837.98
2019-01-21T20:50:14.501Z,100838.31
2019-01-21T20:52:42.896Z,100835.60
2019-01-21T20:55:12.444Z,100830.13
2019-01-21T20:57:40.840Z,100829.20
2019-01-21T21:00:15.354Z,100838.54
2019-01-21T21:02:43.743Z,100832.84
2019-01-21T21:05:12.186Z,100835.55
2019-01-21T21:07:40.581Z,100835.55
2019-01-21T21:10:11.327Z,100838.23
2019-01-21T21:12:39.716Z,100834.78
2019-01-21T21:15:13.894Z,100839.39
2019-01-21T21:17:42.296Z,100833.57
2019-01-21T21:20:12.522Z,100833.05
2019-01-21T21:22:40.990Z,100836.11
2019-01-21T21:25:12.439Z,100831.41
2019-01-21T21:27:41.190Z,100834.16
2019-01-21T21:30:16.060Z,100827.34
2019-01-21T21:32:44.452Z,100823.82
2019-01-21T21:35:12.979Z,100823.74
2019-01-21T21:37:41.554Z,100820.07
2019-01-21T21:40:12.731Z,100820.47
2019-01-21T21:42:41.176Z,100819.67
2019-01-21T21:45:21.711Z,100823.11
2019-01-21T21:47:50.483Z,100818.37
2019-01-21T21:50:30.458Z,100817.59
2019-01-21T21:52:58.972Z,100817.53
2019-01-21T21:55:27.386Z,100814.86
2019-01-21T21:57:55.767Z,100817.40
2019-01-21T22:00:26.853Z,100813.88
2019-01-21T22:02:55.248Z,100815.05
2019-01-21T22:05:23.699Z,100809.98
2019-01-21T22:07:52.084Z,100813.83
2019-01-21T22:10:25.524Z,100805.72
2019-01-21T22:12:53.907Z,100812.60
2019-01-21T22:15:23.922Z,100804.28
2019-01-21T22:17:52.311Z,100801.12
2019-01-21T22:20:22.387Z,100792.36
2019-01-21T22:22:50.772Z,100796.19
2019-01-21T22:25:19.723Z,100791.77
2019-01-21T22:27:48.285Z,100791.34
2019-01-21T22:30:19.344Z,100787.97
2019-01-21T22:32:47.801Z,100786.08
2019-01-21T22:35:16.184Z,100791.80
2019-01-21T22:37:45.009Z,100789.28
2019-01-21T22:40:15.643Z,100784.47
2019-01-21T22:42:44.018Z,100784.28
2019-01-21T22:45:13.855Z,100780.20
2019-01-21T22:47:42.238Z,100787.61
2019-01-21T22:50:52.275Z,100777.80
2019-01-21T22:53:20.667Z,100775.66
2019-01-21T22:58:55.701Z,100773.18
2019-01-21T23:02:03.989Z,100771.69
2019-01-21T23:04:51.493Z,100765.45
2019-01-21T23:07:39.121Z,100763.59
2019-01-21T23:10:27.645Z,100763.11
2019-01-21T23:15:45.353Z,100755.59
2019-01-21T23:18:32.906Z,100751.30
2019-01-21T23:23:35.069Z,100747.48
2019-01-21T23:26:22.705Z,100750.52
2019-01-21T23:29:10.545Z,100749.87
2019-01-21T23:31:39.074Z,100745.59
2019-01-21T23:34:26.729Z,100747.28
2019-01-21T23:45:51.278Z,100733.67
2019-01-21T23:48:38.909Z,100732.10
2019-01-21T23:51:26.418Z,100726.63
2019-01-21T23:53:54.843Z,100722.63
2019-01-21T23:56:23.304Z,100713.34
2019-01-21T23:59:11.095Z,100709.53
